sensor_id;sensor_type;location;lat;lon;timestamp;P1;durP1;ratioP1;P2;durP2;ratioP2
70301;SDS011;57706;56.326;43.882;2022-12-29T00:01:26;33.70;;;12.27;;
70301;SDS011;57706;56.326;43.882;2022-12-29T00:03:52;29.85;;;11.98;;
70301;SDS011;57706;56.326;43.882;2022-12-29T00:06:18;26.80;;;11.00;;
70301;SDS011;57706;56.326;43.882;2022-12-29T00:08:44;29.42;;;11.55;;
70301;SDS011;57706;56.326;43.882;2022-12-29T00:11:11;32.15;;;13.27;;
70301;SDS011;57706;56.326;43.882;2022-12-29T00:13:39;32.40;;;13.43;;
70301;SDS011;57706;56.326;43.882;2022-12-29T00:16:24;28.08;;;12.30;;
70301;SDS011;57706;56.326;43.882;2022-12-29T00:18:50;33.22;;;12.73;;
70301;SDS011;57706;56.326;43.882;2022-12-29T00:21:17;33.08;;;12.90;;
70301;SDS011;57706;56.326;43.882;2022-12-29T00:24:02;21.92;;;9.88;;
70301;SDS011;57706;56.326;43.882;2022-12-29T00:29:57;23.55;;;9.20;;
70301;SDS011;57706;56.326;43.882;2022-12-29T00:32:42;26.05;;;10.65;;
70301;SDS011;57706;56.326;43.882;2022-12-29T00:38:01;21.95;;;9.32;;
70301;SDS011;57706;56.326;43.882;2022-12-29T00:40:48;31.30;;;11.68;;
70301;SDS011;57706;56.326;43.882;2022-12-29T00:43:51;28.30;;;12.35;;
70301;SDS011;57706;56.326;43.882;2022-12-29T00:46:36;26.60;;;10.82;;
70301;SDS011;57706;56.326;43.882;2022-12-29T00:49:22;31.77;;;12.63;;
70301;SDS011;57706;56.326;43.882;2022-12-29T00:52:14;24.58;;;10.00;;
70301;SDS011;57706;56.326;43.882;2022-12-29T00:54:40;23.08;;;9.40;;
70301;SDS011;57706;56.326;43.882;2022-12-29T00:57:07;26.10;;;10.13;;
70301;SDS011;57706;56.326;43.882;2022-12-29T00:59:38;27.70;;;10.13;;
70301;SDS011;57706;56.326;43.882;2022-12-29T01:02:05;23.50;;;10.10;;
70301;SDS011;57706;56.326;43.882;2022-12-29T01:04:31;31.45;;;11.85;;
70301;SDS011;57706;56.326;43.882;2022-12-29T01:06:57;26.52;;;10.50;;
70301;SDS011;57706;56.326;43.882;2022-12-29T01:09:23;29.25;;;11.85;;
70301;SDS011;57706;56.326;43.882;2022-12-29T01:12:08;26.83;;;9.38;;
70301;SDS011;57706;56.326;43.882;2022-12-29T01:14:35;21.40;;;9.45;;
70301;SDS011;57706;56.326;43.882;2022-12-29T01:17:02;28.67;;;10.63;;
70301;SDS011;57706;56.326;43.882;2022-12-29T01:19:28;26.67;;;11.13;;
70301;SDS011;57706;56.326;43.882;2022-12-29T01:21:55;31.45;;;10.40;;
70301;SDS011;57706;56.326;43.882;2022-12-29T01:24:21;28.52;;;12.57;;
70301;SDS011;57706;56.326;43.882;2022-12-29T01:26:48;23.00;;;8.10;;
70301;SDS011;57706;56.326;43.882;2022-12-29T01:29:16;36.30;;;13.65;;
70301;SDS011;57706;56.326;43.882;2022-12-29T01:31:44;26.95;;;11.25;;
70301;SDS011;57706;56.326;43.882;2022-12-29T01:34:11;31.25;;;13.82;;
70301;SDS011;57706;56.326;43.882;2022-12-29T01:36:37;28.00;;;12.20;;
70301;SDS011;57706;56.326;43.882;2022-12-29T01:39:21;35.00;;;14.07;;
70301;SDS011;57706;56.326;43.882;2022-12-29T01:41:47;32.33;;;11.45;;
70301;SDS011;57706;56.326;43.882;2022-12-29T01:47:36;23.75;;;10.57;;
70301;SDS011;57706;56.326;43.882;2022-12-29T01:50:26;34.28;;;11.77;;
70301;SDS011;57706;56.326;43.882;2022-12-29T01:52:57;27.90;;;11.75;;
70301;SDS011;57706;56.326;43.882;2022-12-29T01:55:35;30.20;;;11.55;;
70301;SDS011;57706;56.326;43.882;2022-12-29T01:58:07;23.73;;;9.52;;
70301;SDS011;57706;56.326;43.882;2022-12-29T02:00:37;20.08;;;8.45;;
70301;SDS011;57706;56.326;43.882;2022-12-29T02:03:03;28.25;;;11.43;;
70301;SDS011;57706;56.326;43.882;2022-12-29T02:08:02;32.35;;;12.50;;
70301;SDS011;57706;56.326;43.882;2022-12-29T02:10:28;29.42;;;12.25;;
70301;SDS011;57706;56.326;43.882;2022-12-29T02:12:57;30.50;;;11.82;;
70301;SDS011;57706;56.326;43.882;2022-12-29T02:15:26;23.70;;;11.15;;
70301;SDS011;57706;56.326;43.882;2022-12-29T02:18:04;26.58;;;11.68;;
70301;SDS011;57706;56.326;43.882;2022-12-29T02:23:59;28.58;;;11.45;;
70301;SDS011;57706;56.326;43.882;2022-12-29T02:32:36;26.17;;;11.65;;
70301;SDS011;57706;56.326;43.882;2022-12-29T02:43:47;27.50;;;11.65;;
70301;SDS011;57706;56.326;43.882;2022-12-29T02:49:41;30.48;;;12.07;;
70301;SDS011;57706;56.326;43.882;2022-12-29T02:52:21;24.98;;;11.15;;
70301;SDS011;57706;56.326;43.882;2022-12-29T02:54:53;37.28;;;13.10;;
70301;SDS011;57706;56.326;43.882;2022-12-29T03:00:10;30.00;;;13.18;;
70301;SDS011;57706;56.326;43.882;2022-12-29T03:05:41;32.03;;;12.50;;
70301;SDS011;57706;56.326;43.882;2022-12-29T03:16:19;25.52;;;11.57;;
70301;SDS011;57706;56.326;43.882;2022-12-29T03:22:03;30.10;;;12.70;;
70301;SDS011;57706;56.326;43.882;2022-12-29T03:24:58;27.75;;;12.02;;
70301;SDS011;57706;56.326;43.882;2022-12-29T03:27:47;30.80;;;13.00;;
70301;SDS011;57706;56.326;43.882;2022-12-29T03:30:17;26.98;;;11.02;;
70301;SDS011;57706;56.326;43.882;2022-12-29T03:32:45;32.67;;;13.07;;
70301;SDS011;57706;56.326;43.882;2022-12-29T03:35:15;28.50;;;12.40;;
70301;SDS011;57706;56.326;43.882;2022-12-29T03:38:08;33.72;;;13.02;;
70301;SDS011;57706;56.326;43.882;2022-12-29T03:40:36;26.90;;;9.55;;
70301;SDS011;57706;56.326;43.882;2022-12-29T03:43:06;25.05;;;10.27;;
70301;SDS011;57706;56.326;43.882;2022-12-29T03:45:34;29.23;;;11.45;;
70301;SDS011;57706;56.326;43.882;2022-12-29T03:48:00;33.25;;;11.88;;
70301;SDS011;57706;56.326;43.882;2022-12-29T03:50:27;30.73;;;12.25;;
70301;SDS011;57706;56.326;43.882;2022-12-29T03:52:53;30.00;;;11.70;;
70301;SDS011;57706;56.326;43.882;2022-12-29T03:55:19;25.23;;;11.77;;
70301;SDS011;57706;56.326;43.882;2022-12-29T03:57:45;30.92;;;12.15;;
70301;SDS011;57706;56.326;43.882;2022-12-29T04:00:15;27.08;;;11.98;;
70301;SDS011;57706;56.326;43.882;2022-12-29T04:02:44;29.83;;;11.55;;
70301;SDS011;57706;56.326;43.882;2022-12-29T04:05:16;24.58;;;11.55;;
70301;SDS011;57706;56.326;43.882;2022-12-29T04:07:42;25.80;;;10.50;;
70301;SDS011;57706;56.326;43.882;2022-12-29T04:10:08;27.52;;;10.82;;
70301;SDS011;57706;56.326;43.882;2022-12-29T04:12:34;21.25;;;9.15;;
70301;SDS011;57706;56.326;43.882;2022-12-29T04:15:01;26.67;;;9.98;;
70301;SDS011;57706;56.326;43.882;2022-12-29T04:17:28;22.48;;;9.20;;
70301;SDS011;57706;56.326;43.882;2022-12-29T04:19:54;22.08;;;9.73;;
70301;SDS011;57706;56.326;43.882;2022-12-29T04:22:40;24.52;;;10.40;;
70301;SDS011;57706;56.326;43.882;2022-12-29T04:25:06;22.98;;;10.20;;
70301;SDS011;57706;56.326;43.882;2022-12-29T04:27:33;26.88;;;10.20;;
70301;SDS011;57706;56.326;43.882;2022-12-29T04:33:00;20.88;;;9.25;;
70301;SDS011;57706;56.326;43.882;2022-12-29T04:35:27;27.65;;;11.57;;
70301;SDS011;57706;56.326;43.882;2022-12-29T04:37:53;24.45;;;10.15;;
70301;SDS011;57706;56.326;43.882;2022-12-29T04:40:19;24.05;;;10.85;;
70301;SDS011;57706;56.326;43.882;2022-12-29T04:43:04;20.13;;;9.30;;
70301;SDS011;57706;56.326;43.882;2022-12-29T04:45:33;20.90;;;9.52;;
70301;SDS011;57706;56.326;43.882;2022-12-29T04:48:07;23.63;;;8.98;;
70301;SDS011;57706;56.326;43.882;2022-12-29T04:50:58;26.40;;;9.60;;
70301;SDS011;57706;56.326;43.882;2022-12-29T04:53:27;20.23;;;8.93;;
70301;SDS011;57706;56.326;43.882;2022-12-29T04:55:53;19.48;;;7.85;;
70301;SDS011;57706;56.326;43.882;2022-12-29T04:58:19;22.83;;;9.90;;
70301;SDS011;57706;56.326;43.882;2022-12-29T05:00:46;20.75;;;8.25;;
70301;SDS011;57706;56.326;43.882;2022-12-29T05:03:12;20.92;;;7.28;;
70301;SDS011;57706;56.326;43.882;2022-12-29T05:05:40;23.70;;;8.38;;
70301;SDS011;57706;56.326;43.882;2022-12-29T05:08:06;24.30;;;9.23;;
70301;SDS011;57706;56.326;43.882;2022-12-29T05:10:32;21.45;;;8.02;;
70301;SDS011;57706;56.326;43.882;2022-12-29T05:13:03;19.90;;;7.68;;
70301;SDS011;57706;56.326;43.882;2022-12-29T05:15:29;18.27;;;8.40;;
70301;SDS011;57706;56.326;43.882;2022-12-29T05:17:55;18.50;;;8.20;;
70301;SDS011;57706;56.326;43.882;2022-12-29T05:20:21;21.63;;;7.82;;
70301;SDS011;57706;56.326;43.882;2022-12-29T05:22:47;18.65;;;7.80;;
70301;SDS011;57706;56.326;43.882;2022-12-29T05:25:13;19.95;;;8.43;;
70301;SDS011;57706;56.326;43.882;2022-12-29T05:28:06;18.58;;;7.75;;
70301;SDS011;57706;56.326;43.882;2022-12-29T05:30:52;24.73;;;9.80;;
70301;SDS011;57706;56.326;43.882;2022-12-29T05:33:18;24.25;;;8.85;;
70301;SDS011;57706;56.326;43.882;2022-12-29T05:35:46;21.85;;;8.15;;
70301;SDS011;57706;56.326;43.882;2022-12-29T05:38:13;19.75;;;8.80;;
70301;SDS011;57706;56.326;43.882;2022-12-29T05:40:39;23.58;;;9.07;;
70301;SDS011;57706;56.326;43.882;2022-12-29T05:43:14;20.45;;;9.00;;
70301;SDS011;57706;56.326;43.882;2022-12-29T05:46:13;28.15;;;10.63;;
70301;SDS011;57706;56.326;43.882;2022-12-29T05:48:55;23.92;;;10.68;;
70301;SDS011;57706;56.326;43.882;2022-12-29T05:51:28;23.25;;;9.77;;
70301;SDS011;57706;56.326;43.882;2022-12-29T05:53:54;29.08;;;10.68;;
70301;SDS011;57706;56.326;43.882;2022-12-29T05:56:21;26.15;;;10.73;;
70301;SDS011;57706;56.326;43.882;2022-12-29T05:58:53;25.60;;;10.90;;
70301;SDS011;57706;56.326;43.882;2022-12-29T06:01:20;24.15;;;11.15;;
70301;SDS011;57706;56.326;43.882;2022-12-29T06:03:46;26.15;;;11.38;;
70301;SDS011;57706;56.326;43.882;2022-12-29T06:06:31;26.50;;;10.02;;
70301;SDS011;57706;56.326;43.882;2022-12-29T06:08:57;23.77;;;10.80;;
70301;SDS011;57706;56.326;43.882;2022-12-29T06:11:23;24.52;;;11.32;;
70301;SDS011;57706;56.326;43.882;2022-12-29T06:13:53;30.52;;;11.57;;
70301;SDS011;57706;56.326;43.882;2022-12-29T06:16:19;25.50;;;11.10;;
70301;SDS011;57706;56.326;43.882;2022-12-29T06:18:45;29.08;;;11.35;;
70301;SDS011;57706;56.326;43.882;2022-12-29T06:21:11;29.90;;;11.68;;
70301;SDS011;57706;56.326;43.882;2022-12-29T06:23:37;29.27;;;11.05;;
70301;SDS011;57706;56.326;43.882;2022-12-29T06:26:03;24.42;;;11.43;;
70301;SDS011;57706;56.326;43.882;2022-12-29T06:28:29;22.70;;;12.07;;
70301;SDS011;57706;56.326;43.882;2022-12-29T06:30:56;28.60;;;11.38;;
70301;SDS011;57706;56.326;43.882;2022-12-29T06:33:22;29.83;;;11.07;;
70301;SDS011;57706;56.326;43.882;2022-12-29T06:35:49;24.60;;;11.95;;
70301;SDS011;57706;56.326;43.882;2022-12-29T06:38:15;24.75;;;11.13;;
70301;SDS011;57706;56.326;43.882;2022-12-29T06:40:41;28.70;;;11.68;;
70301;SDS011;57706;56.326;43.882;2022-12-29T06:43:18;25.08;;;10.50;;
70301;SDS011;57706;56.326;43.882;2022-12-29T06:46:03;28.60;;;12.02;;
70301;SDS011;57706;56.326;43.882;2022-12-29T06:48:30;28.60;;;12.50;;
70301;SDS011;57706;56.326;43.882;2022-12-29T06:50:56;25.00;;;10.65;;
70301;SDS011;57706;56.326;43.882;2022-12-29T06:53:21;25.25;;;10.77;;
70301;SDS011;57706;56.326;43.882;2022-12-29T06:55:47;23.40;;;10.00;;
70301;SDS011;57706;56.326;43.882;2022-12-29T06:58:13;22.60;;;10.15;;
70301;SDS011;57706;56.326;43.882;2022-12-29T07:00:39;20.50;;;8.32;;
70301;SDS011;57706;56.326;43.882;2022-12-29T07:03:04;22.77;;;10.30;;
70301;SDS011;57706;56.326;43.882;2022-12-29T07:05:30;24.50;;;9.73;;
70301;SDS011;57706;56.326;43.882;2022-12-29T07:07:58;20.73;;;8.23;;
70301;SDS011;57706;56.326;43.882;2022-12-29T07:10:42;24.33;;;9.50;;
70301;SDS011;57706;56.326;43.882;2022-12-29T07:13:08;19.33;;;8.90;;
70301;SDS011;57706;56.326;43.882;2022-12-29T07:15:35;18.80;;;8.27;;
70301;SDS011;57706;56.326;43.882;2022-12-29T07:18:02;22.88;;;9.07;;
70301;SDS011;57706;56.326;43.882;2022-12-29T07:20:29;20.52;;;9.20;;
70301;SDS011;57706;56.326;43.882;2022-12-29T07:22:55;22.95;;;9.40;;
70301;SDS011;57706;56.326;43.882;2022-12-29T07:25:21;22.00;;;9.77;;
70301;SDS011;57706;56.326;43.882;2022-12-29T07:27:47;21.08;;;9.00;;
70301;SDS011;57706;56.326;43.882;2022-12-29T07:30:14;21.60;;;8.40;;
70301;SDS011;57706;56.326;43.882;2022-12-29T07:32:40;17.13;;;7.60;;
70301;SDS011;57706;56.326;43.882;2022-12-29T07:35:06;19.80;;;8.63;;
70301;SDS011;57706;56.326;43.882;2022-12-29T07:37:33;18.73;;;6.78;;
70301;SDS011;57706;56.326;43.882;2022-12-29T07:39:59;19.95;;;8.85;;
70301;SDS011;57706;56.326;43.882;2022-12-29T07:42:44;17.02;;;7.80;;
70301;SDS011;57706;56.326;43.882;2022-12-29T07:45:12;20.25;;;8.00;;
70301;SDS011;57706;56.326;43.882;2022-12-29T07:47:51;19.45;;;7.60;;
70301;SDS011;57706;56.326;43.882;2022-12-29T07:50:17;20.45;;;8.45;;
70301;SDS011;57706;56.326;43.882;2022-12-29T07:52:43;18.60;;;8.73;;
70301;SDS011;57706;56.326;43.882;2022-12-29T07:55:10;24.40;;;10.23;;
70301;SDS011;57706;56.326;43.882;2022-12-29T07:57:35;17.38;;;8.30;;
70301;SDS011;57706;56.326;43.882;2022-12-29T08:00:02;19.77;;;8.82;;
70301;SDS011;57706;56.326;43.882;2022-12-29T08:02:37;18.58;;;9.13;;
70301;SDS011;57706;56.326;43.882;2022-12-29T08:05:03;17.63;;;8.18;;
70301;SDS011;57706;56.326;43.882;2022-12-29T08:07:29;23.85;;;9.25;;
70301;SDS011;57706;56.326;43.882;2022-12-29T08:09:55;19.10;;;8.68;;
70301;SDS011;57706;56.326;43.882;2022-12-29T08:12:21;19.27;;;8.80;;
70301;SDS011;57706;56.326;43.882;2022-12-29T08:14:46;20.85;;;8.77;;
70301;SDS011;57706;56.326;43.882;2022-12-29T08:17:12;18.85;;;9.02;;
70301;SDS011;57706;56.326;43.882;2022-12-29T08:19:38;20.13;;;8.95;;
70301;SDS011;57706;56.326;43.882;2022-12-29T08:22:04;19.15;;;8.98;;
70301;SDS011;57706;56.326;43.882;2022-12-29T08:24:30;21.27;;;8.63;;
70301;SDS011;57706;56.326;43.882;2022-12-29T08:26:56;23.25;;;8.95;;
70301;SDS011;57706;56.326;43.882;2022-12-29T08:29:21;23.63;;;9.18;;
70301;SDS011;57706;56.326;43.882;2022-12-29T08:32:06;24.15;;;10.55;;
70301;SDS011;57706;56.326;43.882;2022-12-29T08:34:32;23.55;;;8.93;;
70301;SDS011;57706;56.326;43.882;2022-12-29T08:36:58;23.65;;;9.68;;
70301;SDS011;57706;56.326;43.882;2022-12-29T08:39:24;18.80;;;9.30;;
70301;SDS011;57706;56.326;43.882;2022-12-29T08:41:50;22.73;;;9.50;;
70301;SDS011;57706;56.326;43.882;2022-12-29T08:44:16;20.13;;;7.88;;
70301;SDS011;57706;56.326;43.882;2022-12-29T08:46:41;19.80;;;9.05;;
70301;SDS011;57706;56.326;43.882;2022-12-29T08:49:07;23.70;;;10.75;;
70301;SDS011;57706;56.326;43.882;2022-12-29T08:51:33;24.52;;;9.95;;
70301;SDS011;57706;56.326;43.882;2022-12-29T08:53:59;27.52;;;12.20;;
70301;SDS011;57706;56.326;43.882;2022-12-29T08:56:25;28.67;;;12.32;;
70301;SDS011;57706;56.326;43.882;2022-12-29T08:58:54;23.27;;;10.18;;
70301;SDS011;57706;56.326;43.882;2022-12-29T09:01:21;25.00;;;12.00;;
70301;SDS011;57706;56.326;43.882;2022-12-29T09:03:47;27.58;;;11.38;;
70301;SDS011;57706;56.326;43.882;2022-12-29T09:06:14;22.25;;;11.15;;
70301;SDS011;57706;56.326;43.882;2022-12-29T09:08:40;32.75;;;13.23;;
70301;SDS011;57706;56.326;43.882;2022-12-29T09:11:07;24.83;;;10.13;;
70301;SDS011;57706;56.326;43.882;2022-12-29T09:13:44;20.17;;;9.55;;
70301;SDS011;57706;56.326;43.882;2022-12-29T09:16:11;29.15;;;11.60;;
70301;SDS011;57706;56.326;43.882;2022-12-29T09:18:37;21.58;;;9.93;;
70301;SDS011;57706;56.326;43.882;2022-12-29T09:21:04;21.27;;;9.30;;
70301;SDS011;57706;56.326;43.882;2022-12-29T09:23:31;19.77;;;8.63;;
70301;SDS011;57706;56.326;43.882;2022-12-29T09:25:59;18.27;;;8.88;;
70301;SDS011;57706;56.326;43.882;2022-12-29T09:28:25;22.65;;;9.48;;
70301;SDS011;57706;56.326;43.882;2022-12-29T09:30:51;18.45;;;8.63;;
70301;SDS011;57706;56.326;43.882;2022-12-29T09:33:17;21.15;;;9.00;;
70301;SDS011;57706;56.326;43.882;2022-12-29T09:35:44;22.38;;;10.05;;
70301;SDS011;57706;56.326;43.882;2022-12-29T09:38:15;24.25;;;9.38;;
70301;SDS011;57706;56.326;43.882;2022-12-29T09:40:43;20.30;;;9.13;;
70301;SDS011;57706;56.326;43.882;2022-12-29T09:45:40;20.23;;;8.52;;
70301;SDS011;57706;56.326;43.882;2022-12-29T09:48:13;20.92;;;8.88;;
70301;SDS011;57706;56.326;43.882;2022-12-29T09:50:44;21.58;;;9.45;;
70301;SDS011;57706;56.326;43.882;2022-12-29T09:53:20;19.60;;;8.70;;
70301;SDS011;57706;56.326;43.882;2022-12-29T09:55:48;22.02;;;9.20;;
70301;SDS011;57706;56.326;43.882;2022-12-29T10:00:49;18.13;;;8.98;;
70301;SDS011;57706;56.326;43.882;2022-12-29T10:03:22;21.25;;;10.20;;
70301;SDS011;57706;56.326;43.882;2022-12-29T10:08:44;21.67;;;9.50;;
70301;SDS011;57706;56.326;43.882;2022-12-29T10:11:46;20.88;;;10.07;;
70301;SDS011;57706;56.326;43.882;2022-12-29T10:20:03;27.60;;;11.40;;
70301;SDS011;57706;56.326;43.882;2022-12-29T10:22:42;24.83;;;10.68;;
70301;SDS011;57706;56.326;43.882;2022-12-29T10:25:18;27.35;;;12.13;;
70301;SDS011;57706;56.326;43.882;2022-12-29T10:27:49;26.23;;;10.93;;
70301;SDS011;57706;56.326;43.882;2022-12-29T10:30:16;27.92;;;11.88;;
70301;SDS011;57706;56.326;43.882;2022-12-29T10:35:20;30.10;;;11.45;;
70301;SDS011;57706;56.326;43.882;2022-12-29T10:40:48;32.20;;;13.13;;
70301;SDS011;57706;56.326;43.882;2022-12-29T10:46:37;38.58;;;14.93;;
70301;SDS011;57706;56.326;43.882;2022-12-29T10:49:05;30.00;;;12.77;;
70301;SDS011;57706;56.326;43.882;2022-12-29T10:51:39;35.70;;;14.20;;
70301;SDS011;57706;56.326;43.882;2022-12-29T10:54:15;35.20;;;17.15;;
70301;SDS011;57706;56.326;43.882;2022-12-29T10:56:47;35.25;;;16.00;;
70301;SDS011;57706;56.326;43.882;2022-12-29T11:06:51;36.17;;;15.35;;
70301;SDS011;57706;56.326;43.882;2022-12-29T11:09:31;32.13;;;14.52;;
70301;SDS011;57706;56.326;43.882;2022-12-29T11:12:00;38.70;;;17.17;;
70301;SDS011;57706;56.326;43.882;2022-12-29T11:14:27;34.22;;;13.48;;
70301;SDS011;57706;56.326;43.882;2022-12-29T11:17:01;36.13;;;14.90;;
70301;SDS011;57706;56.326;43.882;2022-12-29T11:19:48;35.20;;;14.13;;
70301;SDS011;57706;56.326;43.882;2022-12-29T11:24:49;34.53;;;15.43;;
70301;SDS011;57706;56.326;43.882;2022-12-29T11:27:21;25.60;;;11.10;;
70301;SDS011;57706;56.326;43.882;2022-12-29T11:29:52;28.40;;;12.38;;
70301;SDS011;57706;56.326;43.882;2022-12-29T11:32:20;21.27;;;9.07;;
70301;SDS011;57706;56.326;43.882;2022-12-29T11:35:05;22.05;;;9.35;;
70301;SDS011;57706;56.326;43.882;2022-12-29T11:37:32;21.95;;;9.18;;
70301;SDS011;57706;56.326;43.882;2022-12-29T11:40:09;27.85;;;12.88;;
70301;SDS011;57706;56.326;43.882;2022-12-29T11:47:53;21.40;;;9.38;;
70301;SDS011;57706;56.326;43.882;2022-12-29T11:50:33;22.65;;;10.02;;
70301;SDS011;57706;56.326;43.882;2022-12-29T11:53:02;25.55;;;9.68;;
70301;SDS011;57706;56.326;43.882;2022-12-29T11:55:31;23.60;;;9.15;;
70301;SDS011;57706;56.326;43.882;2022-12-29T11:57:58;24.45;;;9.85;;
70301;SDS011;57706;56.326;43.882;2022-12-29T12:00:28;20.88;;;9.48;;
70301;SDS011;57706;56.326;43.882;2022-12-29T12:10:39;22.38;;;8.95;;
70301;SDS011;57706;56.326;43.882;2022-12-29T12:13:27;19.80;;;8.90;;
70301;SDS011;57706;56.326;43.882;2022-12-29T12:16:02;22.95;;;9.02;;
70301;SDS011;57706;56.326;43.882;2022-12-29T12:18:34;24.23;;;9.13;;
70301;SDS011;57706;56.326;43.882;2022-12-29T12:21:20;14.23;;;7.25;;
70301;SDS011;57706;56.326;43.882;2022-12-29T12:29:30;20.13;;;8.60;;
70301;SDS011;57706;56.326;43.882;2022-12-29T12:32:14;16.40;;;7.68;;
70301;SDS011;57706;56.326;43.882;2022-12-29T12:34:42;18.98;;;7.88;;
70301;SDS011;57706;56.326;43.882;2022-12-29T12:37:22;17.85;;;7.47;;
70301;SDS011;57706;56.326;43.882;2022-12-29T12:40:25;13.80;;;6.13;;
70301;SDS011;57706;56.326;43.882;2022-12-29T12:43:37;18.38;;;7.13;;
70301;SDS011;57706;56.326;43.882;2022-12-29T12:46:07;20.75;;;8.05;;
70301;SDS011;57706;56.326;43.882;2022-12-29T12:48:55;18.80;;;7.35;;
70301;SDS011;57706;56.326;43.882;2022-12-29T12:51:38;12.82;;;6.47;;
70301;SDS011;57706;56.326;43.882;2022-12-29T13:00:16;13.82;;;6.65;;
70301;SDS011;57706;56.326;43.882;2022-12-29T13:10:53;15.13;;;6.72;;
70301;SDS011;57706;56.326;43.882;2022-12-29T13:24:20;12.20;;;6.18;;
70301;SDS011;57706;56.326;43.882;2022-12-29T13:29:59;17.42;;;7.32;;
70301;SDS011;57706;56.326;43.882;2022-12-29T13:32:40;17.95;;;8.07;;
70301;SDS011;57706;56.326;43.882;2022-12-29T13:40:40;15.80;;;7.60;;
70301;SDS011;57706;56.326;43.882;2022-12-29T13:43:10;18.05;;;7.50;;
70301;SDS011;57706;56.326;43.882;2022-12-29T13:45:37;15.27;;;7.57;;
70301;SDS011;57706;56.326;43.882;2022-12-29T13:48:22;19.92;;;7.82;;
70301;SDS011;57706;56.326;43.882;2022-12-29T13:51:02;14.55;;;6.95;;
70301;SDS011;57706;56.326;43.882;2022-12-29T13:59:12;16.80;;;7.18;;
70301;SDS011;57706;56.326;43.882;2022-12-29T14:01:57;13.48;;;6.57;;
70301;SDS011;57706;56.326;43.882;2022-12-29T14:04:29;16.65;;;6.65;;
70301;SDS011;57706;56.326;43.882;2022-12-29T14:06:59;15.43;;;7.00;;
70301;SDS011;57706;56.326;43.882;2022-12-29T14:14:47;18.73;;;8.63;;
70301;SDS011;57706;56.326;43.882;2022-12-29T14:17:16;20.08;;;8.63;;
70301;SDS011;57706;56.326;43.882;2022-12-29T14:19:45;19.08;;;8.93;;
70301;SDS011;57706;56.326;43.882;2022-12-29T14:22:34;19.95;;;9.02;;
70301;SDS011;57706;56.326;43.882;2022-12-29T14:25:00;21.65;;;8.52;;
70301;SDS011;57706;56.326;43.882;2022-12-29T14:29:54;17.50;;;7.53;;
70301;SDS011;57706;56.326;43.882;2022-12-29T14:34:47;16.00;;;7.15;;
70301;SDS011;57706;56.326;43.882;2022-12-29T14:37:29;17.35;;;8.00;;
70301;SDS011;57706;56.326;43.882;2022-12-29T14:40:19;20.85;;;7.90;;
70301;SDS011;57706;56.326;43.882;2022-12-29T14:42:44;14.48;;;7.32;;
70301;SDS011;57706;56.326;43.882;2022-12-29T14:47:39;21.45;;;9.35;;
70301;SDS011;57706;56.326;43.882;2022-12-29T14:52:45;18.17;;;9.15;;
70301;SDS011;57706;56.326;43.882;2022-12-29T14:57:52;15.80;;;6.88;;
70301;SDS011;57706;56.326;43.882;2022-12-29T15:00:27;13.93;;;5.97;;
70301;SDS011;57706;56.326;43.882;2022-12-29T15:03:57;16.00;;;6.68;;
70301;SDS011;57706;56.326;43.882;2022-12-29T15:09:00;14.05;;;6.57;;
70301;SDS011;57706;56.326;43.882;2022-12-29T15:14:03;13.35;;;7.25;;
70301;SDS011;57706;56.326;43.882;2022-12-29T15:16:58;15.75;;;7.32;;
70301;SDS011;57706;56.326;43.882;2022-12-29T15:19:24;15.90;;;7.63;;
70301;SDS011;57706;56.326;43.882;2022-12-29T15:21:52;16.42;;;7.00;;
70301;SDS011;57706;56.326;43.882;2022-12-29T15:24:19;16.52;;;7.50;;
70301;SDS011;57706;56.326;43.882;2022-12-29T15:26:46;17.20;;;7.72;;
70301;SDS011;57706;56.326;43.882;2022-12-29T15:29:29;15.32;;;6.65;;
70301;SDS011;57706;56.326;43.882;2022-12-29T15:32:15;13.73;;;6.40;;
70301;SDS011;57706;56.326;43.882;2022-12-29T15:34:44;16.77;;;7.07;;
70301;SDS011;57706;56.326;43.882;2022-12-29T15:37:19;14.10;;;6.07;;
70301;SDS011;57706;56.326;43.882;2022-12-29T15:39:50;17.10;;;6.85;;
70301;SDS011;57706;56.326;43.882;2022-12-29T15:42:44;11.20;;;5.68;;
70301;SDS011;57706;56.326;43.882;2022-12-29T15:45:16;12.05;;;5.88;;
70301;SDS011;57706;56.326;43.882;2022-12-29T15:48:01;14.32;;;6.45;;
70301;SDS011;57706;56.326;43.882;2022-12-29T15:50:29;14.82;;;6.05;;
70301;SDS011;57706;56.326;43.882;2022-12-29T15:53:00;14.50;;;6.53;;
70301;SDS011;57706;56.326;43.882;2022-12-29T15:55:32;18.15;;;6.43;;
70301;SDS011;57706;56.326;43.882;2022-12-29T15:57:59;15.02;;;6.75;;
70301;SDS011;57706;56.326;43.882;2022-12-29T16:00:28;15.30;;;6.22;;
70301;SDS011;57706;56.326;43.882;2022-12-29T16:02:57;13.05;;;6.72;;
70301;SDS011;57706;56.326;43.882;2022-12-29T16:05:31;13.75;;;6.90;;
70301;SDS011;57706;56.326;43.882;2022-12-29T16:08:01;13.68;;;6.38;;
70301;SDS011;57706;56.326;43.882;2022-12-29T16:10:38;13.05;;;6.13;;
70301;SDS011;57706;56.326;43.882;2022-12-29T16:13:21;17.38;;;7.43;;
70301;SDS011;57706;56.326;43.882;2022-12-29T16:16:00;19.05;;;7.03;;
70301;SDS011;57706;56.326;43.882;2022-12-29T16:18:35;18.17;;;7.30;;
70301;SDS011;57706;56.326;43.882;2022-12-29T16:21:06;13.65;;;6.35;;
70301;SDS011;57706;56.326;43.882;2022-12-29T16:23:46;13.55;;;6.35;;
70301;SDS011;57706;56.326;43.882;2022-12-29T16:26:17;17.35;;;6.97;;
70301;SDS011;57706;56.326;43.882;2022-12-29T16:28:44;15.57;;;6.13;;
70301;SDS011;57706;56.326;43.882;2022-12-29T16:33:57;16.85;;;5.85;;
70301;SDS011;57706;56.326;43.882;2022-12-29T16:36:25;14.10;;;6.40;;
70301;SDS011;57706;56.326;43.882;2022-12-29T16:39:19;15.82;;;5.70;;
70301;SDS011;57706;56.326;43.882;2022-12-29T16:41:54;15.43;;;6.60;;
70301;SDS011;57706;56.326;43.882;2022-12-29T16:47:01;14.65;;;6.85;;
70301;SDS011;57706;56.326;43.882;2022-12-29T16:49:38;12.82;;;5.60;;
70301;SDS011;57706;56.326;43.882;2022-12-29T16:55:17;14.15;;;6.35;;
70301;SDS011;57706;56.326;43.882;2022-12-29T16:57:44;17.52;;;6.85;;
70301;SDS011;57706;56.326;43.882;2022-12-29T17:02:47;13.55;;;6.88;;
70301;SDS011;57706;56.326;43.882;2022-12-29T17:05:16;15.80;;;6.85;;
70301;SDS011;57706;56.326;43.882;2022-12-29T17:07:43;14.80;;;6.30;;
70301;SDS011;57706;56.326;43.882;2022-12-29T17:10:10;15.43;;;6.85;;
70301;SDS011;57706;56.326;43.882;2022-12-29T17:12:38;20.60;;;7.47;;
70301;SDS011;57706;56.326;43.882;2022-12-29T17:15:05;17.10;;;6.57;;
70301;SDS011;57706;56.326;43.882;2022-12-29T17:17:38;14.32;;;6.53;;
70301;SDS011;57706;56.326;43.882;2022-12-29T17:22:52;13.95;;;6.15;;
70301;SDS011;57706;56.326;43.882;2022-12-29T17:25:19;14.55;;;6.70;;
70301;SDS011;57706;56.326;43.882;2022-12-29T17:27:49;13.80;;;6.22;;
70301;SDS011;57706;56.326;43.882;2022-12-29T17:30:18;14.10;;;6.80;;
70301;SDS011;57706;56.326;43.882;2022-12-29T17:32:48;13.80;;;6.32;;
70301;SDS011;57706;56.326;43.882;2022-12-29T17:35:18;18.13;;;7.10;;
70301;SDS011;57706;56.326;43.882;2022-12-29T17:37:45;18.02;;;7.68;;
70301;SDS011;57706;56.326;43.882;2022-12-29T17:40:18;18.92;;;7.85;;
70301;SDS011;57706;56.326;43.882;2022-12-29T17:42:51;18.83;;;9.00;;